KAGC

Allegheny County Airport

Pittsburgh, Pennsylvania, USA
KAGC 212325Z 2200/2224 VRB04KT P6SM BKN050 FM221400 12007KT P6SM BKN250
Issued Valid From Valid To
Jan-21 @ 23:25 UTC
(47 minutes ago)
Jan-22 @ 00:00 UTC
(12 minutes ago)
Jan-23 @ 00:00 UTC
(in 24 hours)
Jan-22 @ 00:00 to Jan-22 @ 14:00
KAGC 212325Z 2200/2224 VRB04KT P6SM BKN050
Wind Visibility Clouds
Variable at 4 knots Greater than 6 miles
  • Broken at 5,000' AGL
From Jan-22 @ 14:00 to Jan-23 @ 00:00
FM221400 12007KT P6SM BKN250
Wind Visibility Clouds
120° at 7 knots Greater than 6 miles
  • Broken at 25,000' AGL
KAGC 212325Z 2200/2224 VRB04KT P6SM BKN050 FM221400 12007KT P6SM BKN250
Issued Jan-21 @ 23:25 UTC
(47 minutes ago)
Valid From Jan-22 @ 00:00 UTC
(12 minutes ago)
Valid To Jan-23 @ 00:00 UTC
(in 24 hours)
Jan-22 @ 00:00 - Jan-22 @ 14:00
Wind Visibility
Variable at 4 knots Greater than 6 miles
Clouds
  • Broken at 5,000' AGL
From Jan-22 @ 14:00 - Jan-23 @ 00:00
Wind Visibility
120° at 7 knots Greater than 6 miles
Clouds
  • Broken at 25,000' AGL